createdAt,value
2022-11-17T00:00:42.998Z,9.33
2022-11-17T00:03:14.755Z,8.37
2022-11-17T00:05:42.716Z,8.53
2022-11-17T00:08:10.744Z,8.83
2022-11-17T00:10:40.147Z,8.90
2022-11-17T00:13:25.827Z,8.87
2022-11-17T00:15:53.694Z,9.33
2022-11-17T00:18:39.090Z,9.53
2022-11-17T00:21:23.812Z,8.80
2022-11-17T00:23:52.003Z,10.13
2022-11-17T00:26:23.333Z,9.93
2022-11-17T00:28:54.582Z,9.90
2022-11-17T00:31:40.455Z,9.90
2022-11-17T00:34:09.453Z,8.33
2022-11-17T00:36:40.696Z,8.30
2022-11-17T00:39:10.303Z,7.93
2022-11-17T00:41:39.778Z,7.70
2022-11-17T00:44:07.974Z,8.30
2022-11-17T00:46:37.233Z,7.40
2022-11-17T00:49:05.614Z,8.40
2022-11-17T00:51:34.212Z,7.40
2022-11-17T00:54:02.145Z,8.43
2022-11-17T00:56:30.542Z,8.53
2022-11-17T00:58:59.844Z,8.33
2022-11-17T01:01:28.608Z,8.23
2022-11-17T01:04:03.308Z,8.03
2022-11-17T01:06:33.261Z,9.13
2022-11-17T01:09:01.746Z,9.93
2022-11-17T01:11:29.817Z,9.33
2022-11-17T01:14:01.452Z,9.20
2022-11-17T01:16:30.259Z,9.20
2022-11-17T01:19:01.144Z,7.87
2022-11-17T01:21:31.274Z,7.83
2022-11-17T01:24:00.648Z,7.00
2022-11-17T01:26:30.601Z,7.97
2022-11-17T01:29:01.693Z,8.90
2022-11-17T01:31:31.965Z,8.77
2022-11-17T01:33:59.981Z,7.67
2022-11-17T01:36:29.922Z,7.67
2022-11-17T01:38:57.792Z,8.53
2022-11-17T01:41:27.794Z,9.27
2022-11-17T01:43:57.547Z,9.03
2022-11-17T01:46:32.712Z,8.77
2022-11-17T01:49:06.220Z,8.90
2022-11-17T01:51:36.803Z,9.93
2022-11-17T01:54:04.870Z,10.83
2022-11-17T01:56:39.025Z,10.83
2022-11-17T01:59:16.667Z,11.40
2022-11-17T02:01:56.724Z,11.30
2022-11-17T02:04:27.323Z,12.03
2022-11-17T02:07:01.891Z,11.87
2022-11-17T02:09:30.592Z,11.57
2022-11-17T02:12:00.030Z,12.00
2022-11-17T02:14:28.017Z,12.13
2022-11-17T02:17:01.375Z,12.90
2022-11-17T02:19:37.212Z,12.40
2022-11-17T02:22:31.714Z,12.47
2022-11-17T02:25:31.040Z,13.40
2022-11-17T02:28:07.774Z,13.17
2022-11-17T02:30:42.246Z,13.40
2022-11-17T02:33:16.171Z,14.30
2022-11-17T02:35:51.211Z,13.93
2022-11-17T02:38:29.370Z,13.77
2022-11-17T02:41:08.645Z,14.27
2022-11-17T02:44:03.654Z,14.50
2022-11-17T02:46:38.872Z,13.57
2022-11-17T02:49:13.737Z,13.70
2022-11-17T02:51:42.466Z,13.03
2022-11-17T02:54:11.274Z,13.60
2022-11-17T02:56:42.982Z,13.57
2022-11-17T02:59:15.825Z,13.47
2022-11-17T03:02:11.922Z,12.63
2022-11-17T03:04:50.332Z,13.00
2022-11-17T03:07:36.922Z,13.70
2022-11-17T03:10:13.782Z,14.53
2022-11-17T03:12:48.111Z,13.53
2022-11-17T03:15:25.381Z,14.80
2022-11-17T03:18:02.032Z,13.70
2022-11-17T03:20:36.742Z,13.67
2022-11-17T03:23:11.027Z,13.73
2022-11-17T03:25:42.170Z,14.03
2022-11-17T03:28:12.662Z,14.60
2022-11-17T03:30:44.169Z,14.50
2022-11-17T03:33:16.556Z,14.27
2022-11-17T03:35:51.073Z,14.03
2022-11-17T03:38:21.874Z,14.23
2022-11-17T03:40:53.313Z,12.80
2022-11-17T03:43:22.326Z,13.77
2022-11-17T03:45:55.260Z,14.13
2022-11-17T03:48:30.206Z,13.17
2022-11-17T03:51:04.649Z,13.80
2022-11-17T03:53:33.447Z,12.70
2022-11-17T03:56:09.319Z,13.53
2022-11-17T03:58:44.943Z,13.23
2022-11-17T04:01:15.579Z,12.90
2022-11-17T04:03:43.528Z,13.33
2022-11-17T04:06:11.364Z,11.70
2022-11-17T04:08:39.357Z,12.63
2022-11-17T04:11:24.679Z,12.40
2022-11-17T04:14:10.228Z,12.13
2022-11-17T04:16:39.514Z,12.03
2022-11-17T04:19:07.356Z,12.47
2022-11-17T04:21:35.271Z,12.67
2022-11-17T04:24:03.143Z,12.20
2022-11-17T04:26:48.589Z,12.40
2022-11-17T04:29:17.642Z,11.73
2022-11-17T04:31:46.923Z,13.00
2022-11-17T04:34:14.818Z,11.73
2022-11-17T04:36:46.579Z,11.60
2022-11-17T04:39:16.071Z,11.40
2022-11-17T04:42:01.925Z,11.50
2022-11-17T04:44:31.167Z,11.57
2022-11-17T04:47:03.025Z,11.30
2022-11-17T04:49:33.079Z,11.30
2022-11-17T04:52:01.510Z,11.10
2022-11-17T04:54:29.403Z,11.20
2022-11-17T04:56:58.026Z,11.43
2022-11-17T04:59:25.929Z,10.70
2022-11-17T05:01:53.862Z,11.17
2022-11-17T05:04:37.085Z,10.60
2022-11-17T05:07:05.422Z,10.50
2022-11-17T05:09:33.966Z,10.80
2022-11-17T05:12:19.447Z,10.73
2022-11-17T05:14:50.339Z,10.53
2022-11-17T05:17:17.605Z,9.93
2022-11-17T05:19:48.359Z,11.67
2022-11-17T05:22:35.628Z,10.67
2022-11-17T05:25:03.847Z,11.70
2022-11-17T05:27:33.311Z,11.50
2022-11-17T05:30:01.546Z,10.83
2022-11-17T05:32:29.445Z,11.77
2022-11-17T05:34:58.676Z,12.17
2022-11-17T05:37:26.556Z,11.43
2022-11-17T05:39:54.610Z,14.20
2022-11-17T05:42:22.505Z,12.50
2022-11-17T05:44:50.352Z,12.40
2022-11-17T05:47:18.336Z,11.97
2022-11-17T05:49:46.255Z,11.97
2022-11-17T05:52:15.723Z,11.67
2022-11-17T05:54:43.574Z,12.20
2022-11-17T05:57:15.407Z,12.03
2022-11-17T05:59:46.644Z,10.83
2022-11-17T06:02:19.447Z,10.50
2022-11-17T06:04:49.755Z,10.53
2022-11-17T06:07:20.600Z,10.73
2022-11-17T06:09:48.999Z,10.33
2022-11-17T06:12:16.947Z,9.23
2022-11-17T06:14:44.819Z,9.93
2022-11-17T06:17:22.425Z,9.90
2022-11-17T06:19:56.509Z,8.47
2022-11-17T06:22:27.610Z,8.83
2022-11-17T06:24:56.157Z,9.40
2022-11-17T06:27:25.658Z,9.70
2022-11-17T06:29:54.955Z,9.67
2022-11-17T06:32:23.010Z,11.80
2022-11-17T06:34:55.796Z,10.90
2022-11-17T06:37:26.077Z,10.03
2022-11-17T06:39:54.188Z,9.90
2022-11-17T06:42:43.011Z,9.07
2022-11-17T06:45:11.920Z,9.57
2022-11-17T06:47:39.980Z,8.87
2022-11-17T06:50:09.586Z,8.47
2022-11-17T06:52:39.047Z,8.90
2022-11-17T06:55:08.668Z,9.37
2022-11-17T06:57:36.673Z,8.33
2022-11-17T07:00:06.157Z,9.40
2022-11-17T07:02:34.265Z,8.93
2022-11-17T07:05:02.294Z,9.00
2022-11-17T07:07:30.230Z,8.73
2022-11-17T07:09:59.516Z,10.10
2022-11-17T07:12:27.436Z,9.60
2022-11-17T07:14:55.340Z,9.30
2022-11-17T07:17:23.205Z,9.00
2022-11-17T07:19:51.273Z,9.17
2022-11-17T07:22:19.164Z,8.43
2022-11-17T07:24:47.060Z,9.03
2022-11-17T07:27:16.395Z,8.43
2022-11-17T07:29:44.293Z,9.30
2022-11-17T07:32:14.033Z,8.77
2022-11-17T07:34:42.648Z,9.33
2022-11-17T07:37:10.622Z,9.17
2022-11-17T07:39:38.630Z,9.03
2022-11-17T07:42:06.676Z,9.50
2022-11-17T07:44:35.995Z,9.50
2022-11-17T07:47:04.016Z,9.33
2022-11-17T07:49:31.932Z,9.10
2022-11-17T07:51:59.821Z,9.30
2022-11-17T07:54:27.715Z,9.30
2022-11-17T07:56:55.568Z,8.70
2022-11-17T07:59:23.450Z,7.93
2022-11-17T08:01:52.815Z,8.40
2022-11-17T08:04:20.707Z,8.80
2022-11-17T08:06:48.700Z,8.43
2022-11-17T08:09:17.097Z,8.33
2022-11-17T08:11:45.021Z,8.37
2022-11-17T08:14:12.928Z,7.77
2022-11-17T08:16:40.869Z,8.07
2022-11-17T08:19:12.072Z,8.00
2022-11-17T08:21:41.153Z,8.33
2022-11-17T08:24:09.626Z,8.13
2022-11-17T08:26:37.507Z,7.87
2022-11-17T08:29:05.457Z,8.07
2022-11-17T08:31:34.367Z,7.57
2022-11-17T08:34:02.314Z,7.80
2022-11-17T08:36:31.644Z,7.67
2022-11-17T08:38:59.563Z,7.53
2022-11-17T08:41:28.786Z,6.93
2022-11-17T08:43:56.697Z,7.30
2022-11-17T08:46:25.851Z,6.70
2022-11-17T08:48:56.858Z,7.47
2022-11-17T08:51:27.237Z,6.87
2022-11-17T08:53:56.824Z,7.10
2022-11-17T08:56:24.720Z,6.80
2022-11-17T08:58:52.777Z,6.87
2022-11-17T09:01:20.726Z,6.80
2022-11-17T09:03:49.121Z,6.80
2022-11-17T09:06:18.269Z,6.67
2022-11-17T09:08:47.337Z,7.13
2022-11-17T09:11:17.656Z,6.67
2022-11-17T09:13:47.286Z,6.83
2022-11-17T09:16:15.777Z,6.83
2022-11-17T09:18:44.226Z,7.00
2022-11-17T09:21:14.075Z,6.93
2022-11-17T09:23:42.130Z,6.90
2022-11-17T09:26:11.728Z,7.03
2022-11-17T09:28:41.190Z,6.97
2022-11-17T09:31:10.545Z,6.80
2022-11-17T09:33:39.502Z,7.57
2022-11-17T09:36:08.503Z,6.93
2022-11-17T09:38:36.851Z,6.87
2022-11-17T09:41:19.739Z,7.57
2022-11-17T09:43:53.829Z,7.77
2022-11-17T09:46:27.464Z,7.47
2022-11-17T09:49:06.549Z,8.00
2022-11-17T09:51:40.060Z,7.97
2022-11-17T09:54:19.840Z,7.83
2022-11-17T09:56:49.028Z,8.20
2022-11-17T09:59:22.634Z,7.73
2022-11-17T10:01:50.643Z,8.37
2022-11-17T10:04:18.936Z,7.97
2022-11-17T10:06:50.744Z,8.50
2022-11-17T10:09:25.895Z,8.73
2022-11-17T10:11:56.145Z,8.13
2022-11-17T10:14:30.182Z,8.73
2022-11-17T10:16:59.898Z,9.00
2022-11-17T10:19:29.697Z,7.77
2022-11-17T10:22:14.668Z,8.67
2022-11-17T10:24:46.905Z,9.30
2022-11-17T10:27:21.967Z,8.57
2022-11-17T10:30:02.845Z,8.23
2022-11-17T10:32:32.651Z,8.80
2022-11-17T10:35:15.441Z,8.50
2022-11-17T10:37:52.501Z,9.57
2022-11-17T10:40:25.385Z,9.73
2022-11-17T10:43:24.182Z,9.07
2022-11-17T10:45:56.252Z,9.10
2022-11-17T10:48:28.740Z,9.57
2022-11-17T10:50:59.102Z,9.40
2022-11-17T10:53:31.044Z,8.93
2022-11-17T10:56:03.867Z,9.67
2022-11-17T10:58:33.031Z,9.50
2022-11-17T11:01:04.024Z,10.37
2022-11-17T11:03:34.456Z,9.67
2022-11-17T11:06:06.377Z,8.87
2022-11-17T11:08:50.661Z,9.97
2022-11-17T11:11:36.070Z,9.47
2022-11-17T11:14:13.802Z,10.17
2022-11-17T11:16:48.214Z,10.00
2022-11-17T11:19:19.259Z,10.17
2022-11-17T11:22:18.288Z,9.87
2022-11-17T11:24:55.670Z,9.47
2022-11-17T11:27:36.237Z,9.50
2022-11-17T11:30:06.575Z,10.23
2022-11-17T11:32:48.307Z,10.27
2022-11-17T11:35:41.945Z,9.87
2022-11-17T11:38:21.921Z,10.83
2022-11-17T11:41:03.671Z,10.80
2022-11-17T11:43:40.884Z,10.10
2022-11-17T11:46:17.079Z,10.47
2022-11-17T11:48:49.096Z,10.37
2022-11-17T11:51:20.237Z,9.90
2022-11-17T11:53:54.495Z,9.97
2022-11-17T11:56:28.788Z,9.17
2022-11-17T11:59:03.292Z,8.90
2022-11-17T12:01:38.561Z,9.60
2022-11-17T12:04:24.835Z,8.50
2022-11-17T12:07:00.137Z,9.03
2022-11-17T12:09:55.447Z,9.10
2022-11-17T12:12:31.431Z,8.33
2022-11-17T12:15:31.047Z,9.47
2022-11-17T12:18:05.435Z,9.23
2022-11-17T12:21:01.419Z,8.70
2022-11-17T12:23:55.780Z,8.57
2022-11-17T12:26:27.115Z,8.67
2022-11-17T12:29:29.022Z,8.27
2022-11-17T12:31:58.575Z,7.73
2022-11-17T12:34:28.943Z,7.43
2022-11-17T12:37:27.498Z,7.47
2022-11-17T12:39:57.917Z,8.03
2022-11-17T12:42:26.312Z,7.80
2022-11-17T12:45:00.436Z,8.23
2022-11-17T12:47:30.750Z,7.80
2022-11-17T12:50:18.885Z,7.93
2022-11-17T12:53:06.343Z,7.33
2022-11-17T12:55:51.956Z,7.43
2022-11-17T12:58:27.586Z,7.77
2022-11-17T13:01:06.223Z,7.13
2022-11-17T13:03:42.876Z,7.20
2022-11-17T13:09:07.272Z,6.93
2022-11-17T13:11:35.457Z,7.00
2022-11-17T13:14:11.023Z,6.87
2022-11-17T13:16:45.088Z,6.40
2022-11-17T13:19:32.760Z,5.97
2022-11-17T13:22:03.236Z,5.60
2022-11-17T13:24:35.114Z,5.63
2022-11-17T13:27:07.300Z,5.20
2022-11-17T13:29:35.672Z,5.47
2022-11-17T13:32:23.738Z,5.57
2022-11-17T13:34:54.019Z,5.20
2022-11-17T13:37:23.860Z,5.30
2022-11-17T13:39:57.868Z,4.77
2022-11-17T13:42:28.626Z,4.67
2022-11-17T13:44:58.731Z,5.03
2022-11-17T13:47:43.507Z,5.33
2022-11-17T13:50:37.202Z,4.80
2022-11-17T13:53:26.208Z,5.17
2022-11-17T13:55:55.470Z,4.97
2022-11-17T13:58:35.936Z,5.30
2022-11-17T14:01:04.065Z,4.90
2022-11-17T14:03:37.178Z,5.17
2022-11-17T14:06:10.330Z,4.80
2022-11-17T14:08:39.935Z,4.73
2022-11-17T14:11:22.563Z,4.40
2022-11-17T14:13:54.083Z,4.70
2022-11-17T14:16:26.072Z,4.50
2022-11-17T14:18:59.618Z,4.37
2022-11-17T14:21:27.904Z,4.50
2022-11-17T14:24:05.615Z,4.63
2022-11-17T14:26:35.024Z,4.40
2022-11-17T14:29:05.696Z,4.20
2022-11-17T14:31:33.787Z,4.43
2022-11-17T14:34:01.837Z,4.50
2022-11-17T14:36:30.436Z,4.67
2022-11-17T14:38:58.866Z,4.90
2022-11-17T14:41:26.730Z,4.67
2022-11-17T14:43:56.151Z,4.90
2022-11-17T14:46:26.211Z,5.03
2022-11-17T14:48:55.471Z,5.00
2022-11-17T14:51:23.862Z,4.93
2022-11-17T14:53:51.748Z,4.70
2022-11-17T14:56:21.089Z,4.93
2022-11-17T14:58:50.305Z,4.63
2022-11-17T15:01:24.278Z,4.70
2022-11-17T15:03:53.799Z,4.80
2022-11-17T15:06:22.249Z,4.27
2022-11-17T15:08:54.960Z,3.87
2022-11-17T15:11:22.972Z,4.27
2022-11-17T15:13:50.937Z,4.87
2022-11-17T15:16:20.620Z,4.37
2022-11-17T15:18:49.348Z,5.10
2022-11-17T15:21:17.656Z,5.93
2022-11-17T15:23:46.263Z,4.47
2022-11-17T15:26:15.824Z,4.70
2022-11-17T15:28:44.328Z,4.97
2022-11-17T15:31:14.240Z,5.00
2022-11-17T15:33:44.616Z,3.60
2022-11-17T15:36:14.098Z,2.97
2022-11-17T15:38:42.599Z,2.60
2022-11-17T15:41:13.373Z,2.73
2022-11-17T15:43:43.731Z,3.00
2022-11-17T15:46:13.291Z,2.47
2022-11-17T15:48:44.039Z,2.37
2022-11-17T15:51:13.556Z,2.47
2022-11-17T15:53:42.324Z,2.23
2022-11-17T15:56:12.667Z,2.10
2022-11-17T15:58:42.384Z,2.30
2022-11-17T16:01:12.367Z,2.47
2022-11-17T16:03:41.095Z,2.27
2022-11-17T16:06:11.042Z,3.13
2022-11-17T16:08:39.822Z,3.27
2022-11-17T16:11:08.731Z,4.17
2022-11-17T16:13:36.620Z,3.40
2022-11-17T16:16:05.535Z,3.07
2022-11-17T16:18:35.537Z,3.20
2022-11-17T16:21:05.186Z,3.40
2022-11-17T16:23:40.379Z,4.07
2022-11-17T16:26:08.669Z,3.17
2022-11-17T16:28:36.623Z,3.83
2022-11-17T16:31:14.710Z,4.10
2022-11-17T16:33:47.427Z,4.63
2022-11-17T16:36:15.430Z,4.90
2022-11-17T16:38:59.801Z,5.70
2022-11-17T16:41:30.144Z,13.90
2022-11-17T16:43:58.494Z,20.00
2022-11-17T16:46:28.804Z,8.73
2022-11-17T16:48:57.853Z,8.73
2022-11-17T16:51:25.901Z,9.80
2022-11-17T16:53:58.917Z,13.70
2022-11-17T16:56:27.360Z,12.90
2022-11-17T16:58:55.714Z,13.93
2022-11-17T17:01:25.591Z,12.17
2022-11-17T17:03:58.214Z,11.60
2022-11-17T17:06:26.477Z,9.37
2022-11-17T17:08:55.283Z,7.90
2022-11-17T17:11:25.129Z,9.83
2022-11-17T17:13:53.060Z,8.47
2022-11-17T17:16:21.772Z,11.43
2022-11-17T17:18:49.908Z,11.50
2022-11-17T17:21:20.037Z,11.13
2022-11-17T17:23:47.996Z,11.47
2022-11-17T17:26:18.481Z,10.27
2022-11-17T17:28:48.910Z,10.83
2022-11-17T17:31:21.955Z,11.20
2022-11-17T17:33:51.148Z,11.37
2022-11-17T17:36:20.438Z,11.60
2022-11-17T17:38:54.610Z,10.63
2022-11-17T17:41:24.790Z,11.27
2022-11-17T17:43:57.996Z,11.17
2022-11-17T17:46:26.672Z,11.63
2022-11-17T17:48:54.587Z,10.13
2022-11-17T17:51:25.062Z,10.97
2022-11-17T17:53:53.703Z,10.37
2022-11-17T17:56:22.878Z,11.07
2022-11-17T17:58:51.925Z,18.90
2022-11-17T18:01:23.046Z,11.33
2022-11-17T18:03:52.100Z,11.00
2022-11-17T18:06:21.465Z,10.50
2022-11-17T18:08:50.082Z,10.93
2022-11-17T18:11:20.186Z,10.03
2022-11-17T18:13:50.071Z,10.30
2022-11-17T18:16:19.595Z,9.90
2022-11-17T18:18:49.484Z,10.00
2022-11-17T18:21:20.163Z,10.63
2022-11-17T18:23:48.073Z,10.03
2022-11-17T18:26:17.951Z,10.83
2022-11-17T18:28:51.627Z,11.30
2022-11-17T18:31:20.415Z,11.53
2022-11-17T18:33:53.132Z,11.37
2022-11-17T18:36:22.057Z,11.53
2022-11-17T18:38:51.061Z,10.80
2022-11-17T18:41:19.867Z,11.07
2022-11-17T18:43:48.171Z,11.67
2022-11-17T18:46:18.139Z,11.83
2022-11-17T18:48:47.976Z,11.80
2022-11-17T18:51:20.207Z,12.00
2022-11-17T18:53:49.411Z,12.03
2022-11-17T18:56:19.043Z,11.07
2022-11-17T18:58:47.066Z,11.30
2022-11-17T19:01:17.142Z,13.10
2022-11-17T19:03:47.277Z,16.07
2022-11-17T19:06:17.640Z,17.40
2022-11-17T19:08:46.195Z,17.00
2022-11-17T19:11:14.451Z,15.73
2022-11-17T19:13:43.659Z,14.33
2022-11-17T19:16:13.708Z,12.80
2022-11-17T19:18:42.467Z,10.50
2022-11-17T19:21:12.021Z,10.80
2022-11-17T19:23:51.037Z,10.83
2022-11-17T19:26:21.661Z,10.07
2022-11-17T19:28:50.047Z,9.87
2022-11-17T19:31:20.307Z,9.97
2022-11-17T19:33:49.543Z,10.60
2022-11-17T19:36:19.559Z,13.40
2022-11-17T19:38:50.735Z,15.33
2022-11-17T19:41:20.635Z,14.27
2022-11-17T19:43:49.035Z,14.03
2022-11-17T19:46:18.196Z,14.27
2022-11-17T19:48:46.551Z,14.20
2022-11-17T19:51:17.382Z,15.33
2022-11-17T19:53:45.544Z,14.77
2022-11-17T19:56:15.210Z,13.53
2022-11-17T19:58:43.593Z,16.20
2022-11-17T20:01:13.393Z,16.17
2022-11-17T20:03:42.382Z,25.50
2022-11-17T20:06:11.399Z,23.57
2022-11-17T20:08:39.496Z,17.73
2022-11-17T20:11:08.832Z,15.87
2022-11-17T20:13:38.728Z,26.57
2022-11-17T20:16:12.043Z,30.17
2022-11-17T20:18:40.317Z,25.80
2022-11-17T20:21:08.739Z,24.70
2022-11-17T20:23:38.040Z,23.50
2022-11-17T20:26:06.478Z,21.80
2022-11-17T20:28:35.019Z,23.37
2022-11-17T20:31:10.076Z,19.43
2022-11-17T20:33:38.430Z,16.20
2022-11-17T20:36:07.831Z,16.60
2022-11-17T20:38:36.586Z,19.60
2022-11-17T20:41:05.524Z,21.10
2022-11-17T20:43:34.291Z,21.60
2022-11-17T20:46:03.095Z,20.50
2022-11-17T20:48:34.250Z,18.23
2022-11-17T20:51:04.181Z,20.67
2022-11-17T20:53:32.897Z,21.20
2022-11-17T20:56:05.990Z,20.30
2022-11-17T20:58:37.289Z,18.40
2022-11-17T21:01:15.533Z,15.97
2022-11-17T21:03:45.634Z,15.47
2022-11-17T21:06:15.127Z,14.50
2022-11-17T21:08:44.915Z,14.60
2022-11-17T21:11:31.833Z,13.80
2022-11-17T21:14:00.217Z,16.23
2022-11-17T21:16:28.205Z,17.30
2022-11-17T21:18:57.477Z,17.57
2022-11-17T21:21:25.458Z,15.47
2022-11-17T21:23:54.655Z,15.87
2022-11-17T21:26:23.927Z,17.10
2022-11-17T21:28:52.944Z,17.47
2022-11-17T21:31:23.597Z,14.83
2022-11-17T21:33:54.888Z,14.30
2022-11-17T21:36:25.713Z,13.63
2022-11-17T21:38:54.422Z,13.30
2022-11-17T21:41:24.228Z,14.07
2022-11-17T21:43:53.531Z,14.43
2022-11-17T21:46:23.244Z,13.60
2022-11-17T21:48:51.798Z,13.97
2022-11-17T21:51:21.244Z,14.50
2022-11-17T21:53:53.408Z,14.27
2022-11-17T21:56:21.741Z,14.77
2022-11-17T21:58:49.628Z,13.83
2022-11-17T22:01:17.893Z,13.80
2022-11-17T22:03:45.805Z,14.07
2022-11-17T22:06:16.023Z,13.63
2022-11-17T22:08:44.947Z,13.87
2022-11-17T22:11:16.730Z,14.90
2022-11-17T22:13:44.583Z,14.73
2022-11-17T22:16:14.916Z,13.77
2022-11-17T22:18:43.084Z,14.20
2022-11-17T22:21:11.009Z,14.57
2022-11-17T22:23:38.905Z,15.20
2022-11-17T22:26:07.578Z,14.53
2022-11-17T22:28:36.863Z,13.97
2022-11-17T22:31:06.836Z,14.80
2022-11-17T22:33:34.757Z,13.30
2022-11-17T22:36:03.644Z,12.10
2022-11-17T22:38:32.016Z,12.73
2022-11-17T22:41:01.618Z,11.90
2022-11-17T22:43:29.535Z,12.30
2022-11-17T22:46:02.202Z,14.23
2022-11-17T22:48:30.087Z,12.77
2022-11-17T22:50:59.168Z,12.87
2022-11-17T22:53:27.784Z,12.30
2022-11-17T22:55:56.028Z,13.03
2022-11-17T22:58:23.932Z,12.60
2022-11-17T23:00:53.081Z,15.00
2022-11-17T23:03:22.379Z,16.37
2022-11-17T23:05:50.332Z,20.13
2022-11-17T23:08:18.342Z,15.43
2022-11-17T23:10:46.662Z,12.43
2022-11-17T23:13:14.564Z,13.07
2022-11-17T23:15:42.423Z,12.53
2022-11-17T23:18:10.324Z,12.30
2022-11-17T23:20:40.320Z,13.40
2022-11-17T23:23:08.207Z,13.33
2022-11-17T23:25:36.140Z,13.40
2022-11-17T23:28:04.029Z,14.73
2022-11-17T23:30:31.918Z,14.53
2022-11-17T23:33:00.034Z,14.67
2022-11-17T23:35:28.199Z,13.70
2022-11-17T23:37:57.483Z,14.37
2022-11-17T23:40:25.467Z,14.30
2022-11-17T23:42:54.002Z,14.27
2022-11-17T23:45:21.911Z,14.90
2022-11-17T23:47:49.941Z,15.73
2022-11-17T23:50:18.647Z,16.27
2022-11-17T23:52:46.563Z,17.50
2022-11-17T23:55:15.899Z,16.60
2022-11-17T23:57:44.073Z,17.13
